sensor_id;sensor_type;location;lat;lon;timestamp;P1;durP1;ratioP1;P2;durP2;ratioP2
41709;SDS011;59402;48.396;-4.472;2022-11-20T00:02:25;16.23;;;1.52;;
41709;SDS011;59402;48.396;-4.472;2022-11-20T00:04:50;11.85;;;1.35;;
41709;SDS011;59402;48.396;-4.472;2022-11-20T00:07:16;17.65;;;1.40;;
41709;SDS011;59402;48.396;-4.472;2022-11-20T00:09:41;17.20;;;1.58;;
41709;SDS011;59402;48.396;-4.472;2022-11-20T00:12:07;32.03;;;2.13;;
41709;SDS011;59402;48.396;-4.472;2022-11-20T00:14:32;27.88;;;1.90;;
41709;SDS011;59402;48.396;-4.472;2022-11-20T00:16:58;51.60;;;2.95;;
41709;SDS011;59402;48.396;-4.472;2022-11-20T00:19:23;23.65;;;1.75;;
41709;SDS011;59402;48.396;-4.472;2022-11-20T00:21:49;42.60;;;2.30;;
41709;SDS011;59402;48.396;-4.472;2022-11-20T00:24:16;11.00;;;1.20;;
41709;SDS011;59402;48.396;-4.472;2022-11-20T00:26:42;9.40;;;0.90;;
41709;SDS011;59402;48.396;-4.472;2022-11-20T00:29:08;23.65;;;1.30;;
41709;SDS011;59402;48.396;-4.472;2022-11-20T00:31:34;54.95;;;3.08;;
41709;SDS011;59402;48.396;-4.472;2022-11-20T00:34:00;82.30;;;3.55;;
41709;SDS011;59402;48.396;-4.472;2022-11-20T00:36:26;52.20;;;2.80;;
41709;SDS011;59402;48.396;-4.472;2022-11-20T00:38:53;26.85;;;1.65;;
41709;SDS011;59402;48.396;-4.472;2022-11-20T00:41:20;14.20;;;1.87;;
41709;SDS011;59402;48.396;-4.472;2022-11-20T00:43:45;20.50;;;1.42;;
41709;SDS011;59402;48.396;-4.472;2022-11-20T00:46:15;12.10;;;1.35;;
41709;SDS011;59402;48.396;-4.472;2022-11-20T00:48:42;16.42;;;1.33;;
41709;SDS011;59402;48.396;-4.472;2022-11-20T00:51:08;9.38;;;1.02;;
41709;SDS011;59402;48.396;-4.472;2022-11-20T00:53:34;11.65;;;1.40;;
41709;SDS011;59402;48.396;-4.472;2022-11-20T00:56:01;22.80;;;1.63;;
41709;SDS011;59402;48.396;-4.472;2022-11-20T00:58:29;7.15;;;0.95;;
41709;SDS011;59402;48.396;-4.472;2022-11-20T01:01:00;11.55;;;1.15;;
41709;SDS011;59402;48.396;-4.472;2022-11-20T01:03:30;4.43;;;0.70;;
41709;SDS011;59402;48.396;-4.472;2022-11-20T01:06:04;5.45;;;0.73;;
41709;SDS011;59402;48.396;-4.472;2022-11-20T01:08:31;4.40;;;0.70;;
41709;SDS011;59402;48.396;-4.472;2022-11-20T01:11:01;6.78;;;1.30;;
41709;SDS011;59402;48.396;-4.472;2022-11-20T01:13:28;5.40;;;0.98;;
41709;SDS011;59402;48.396;-4.472;2022-11-20T01:16:11;8.32;;;0.90;;
41709;SDS011;59402;48.396;-4.472;2022-11-20T01:18:41;8.35;;;1.02;;
41709;SDS011;59402;48.396;-4.472;2022-11-20T01:21:10;5.72;;;1.17;;
41709;SDS011;59402;48.396;-4.472;2022-11-20T01:23:38;7.50;;;0.95;;
41709;SDS011;59402;48.396;-4.472;2022-11-20T01:26:06;11.02;;;1.58;;
41709;SDS011;59402;48.396;-4.472;2022-11-20T01:28:32;13.10;;;1.83;;
41709;SDS011;59402;48.396;-4.472;2022-11-20T01:30:59;10.48;;;1.77;;
41709;SDS011;59402;48.396;-4.472;2022-11-20T01:33:24;11.13;;;1.60;;
41709;SDS011;59402;48.396;-4.472;2022-11-20T01:35:50;23.00;;;2.35;;
41709;SDS011;59402;48.396;-4.472;2022-11-20T01:38:16;16.33;;;1.95;;
41709;SDS011;59402;48.396;-4.472;2022-11-20T01:40:42;16.13;;;2.00;;
41709;SDS011;59402;48.396;-4.472;2022-11-20T01:43:16;12.48;;;1.70;;
41709;SDS011;59402;48.396;-4.472;2022-11-20T01:50:49;17.65;;;2.35;;
41709;SDS011;59402;48.396;-4.472;2022-11-20T01:53:16;16.30;;;2.60;;
41709;SDS011;59402;48.396;-4.472;2022-11-20T01:58:10;20.55;;;2.70;;
41709;SDS011;59402;48.396;-4.472;2022-11-20T02:00:36;23.33;;;3.05;;
41709;SDS011;59402;48.396;-4.472;2022-11-20T02:03:12;30.40;;;3.60;;
41709;SDS011;59402;48.396;-4.472;2022-11-20T02:08:26;19.05;;;2.55;;
41709;SDS011;59402;48.396;-4.472;2022-11-20T02:10:53;24.63;;;3.90;;
41709;SDS011;59402;48.396;-4.472;2022-11-20T02:13:18;31.65;;;4.03;;
41709;SDS011;59402;48.396;-4.472;2022-11-20T02:16:02;23.70;;;3.33;;
41709;SDS011;59402;48.396;-4.472;2022-11-20T02:18:28;33.30;;;3.80;;
41709;SDS011;59402;48.396;-4.472;2022-11-20T02:20:55;35.28;;;4.30;;
41709;SDS011;59402;48.396;-4.472;2022-11-20T02:23:50;35.50;;;3.95;;
41709;SDS011;59402;48.396;-4.472;2022-11-20T02:26:19;33.92;;;4.47;;
41709;SDS011;59402;48.396;-4.472;2022-11-20T02:28:46;34.65;;;3.67;;
41709;SDS011;59402;48.396;-4.472;2022-11-20T02:31:11;40.85;;;4.63;;
41709;SDS011;59402;48.396;-4.472;2022-11-20T02:33:37;31.27;;;4.22;;
41709;SDS011;59402;48.396;-4.472;2022-11-20T02:36:02;30.75;;;3.55;;
41709;SDS011;59402;48.396;-4.472;2022-11-20T02:38:28;29.35;;;3.67;;
41709;SDS011;59402;48.396;-4.472;2022-11-20T02:40:53;37.92;;;4.95;;
41709;SDS011;59402;48.396;-4.472;2022-11-20T02:43:19;33.58;;;4.85;;
41709;SDS011;59402;48.396;-4.472;2022-11-20T02:45:44;34.35;;;4.10;;
41709;SDS011;59402;48.396;-4.472;2022-11-20T02:48:09;30.90;;;4.18;;
41709;SDS011;59402;48.396;-4.472;2022-11-20T02:50:38;32.58;;;4.43;;
41709;SDS011;59402;48.396;-4.472;2022-11-20T02:53:04;44.22;;;4.72;;
41709;SDS011;59402;48.396;-4.472;2022-11-20T02:55:30;37.58;;;4.55;;
41709;SDS011;59402;48.396;-4.472;2022-11-20T02:57:56;33.80;;;4.32;;
41709;SDS011;59402;48.396;-4.472;2022-11-20T03:00:21;45.10;;;5.15;;
41709;SDS011;59402;48.396;-4.472;2022-11-20T03:02:46;34.95;;;4.55;;
41709;SDS011;59402;48.396;-4.472;2022-11-20T03:05:12;43.63;;;5.05;;
41709;SDS011;59402;48.396;-4.472;2022-11-20T03:07:37;37.13;;;5.25;;
41709;SDS011;59402;48.396;-4.472;2022-11-20T03:10:03;38.40;;;5.97;;
41709;SDS011;59402;48.396;-4.472;2022-11-20T03:12:29;29.38;;;4.90;;
41709;SDS011;59402;48.396;-4.472;2022-11-20T03:14:55;42.63;;;5.85;;
41709;SDS011;59402;48.396;-4.472;2022-11-20T03:17:20;35.15;;;4.32;;
41709;SDS011;59402;48.396;-4.472;2022-11-20T03:19:46;25.02;;;4.68;;
41709;SDS011;59402;48.396;-4.472;2022-11-20T03:22:11;32.80;;;5.50;;
41709;SDS011;59402;48.396;-4.472;2022-11-20T03:24:37;40.10;;;4.47;;
41709;SDS011;59402;48.396;-4.472;2022-11-20T03:27:02;32.53;;;4.57;;
41709;SDS011;59402;48.396;-4.472;2022-11-20T03:29:28;35.15;;;4.88;;
41709;SDS011;59402;48.396;-4.472;2022-11-20T03:31:53;31.80;;;3.92;;
41709;SDS011;59402;48.396;-4.472;2022-11-20T03:34:18;27.40;;;4.22;;
41709;SDS011;59402;48.396;-4.472;2022-11-20T03:36:44;26.42;;;4.07;;
41709;SDS011;59402;48.396;-4.472;2022-11-20T03:39:10;24.80;;;3.72;;
41709;SDS011;59402;48.396;-4.472;2022-11-20T03:41:36;31.25;;;4.03;;
41709;SDS011;59402;48.396;-4.472;2022-11-20T03:44:04;21.88;;;3.75;;
41709;SDS011;59402;48.396;-4.472;2022-11-20T03:46:31;22.15;;;3.40;;
41709;SDS011;59402;48.396;-4.472;2022-11-20T03:48:57;27.40;;;3.75;;
41709;SDS011;59402;48.396;-4.472;2022-11-20T03:51:23;28.23;;;4.13;;
41709;SDS011;59402;48.396;-4.472;2022-11-20T03:53:51;25.65;;;3.30;;
41709;SDS011;59402;48.396;-4.472;2022-11-20T03:58:43;26.77;;;3.72;;
41709;SDS011;59402;48.396;-4.472;2022-11-20T04:01:13;28.58;;;4.55;;
41709;SDS011;59402;48.396;-4.472;2022-11-20T04:03:40;21.73;;;3.63;;
41709;SDS011;59402;48.396;-4.472;2022-11-20T04:06:08;31.25;;;4.22;;
41709;SDS011;59402;48.396;-4.472;2022-11-20T04:08:35;36.78;;;4.68;;
41709;SDS011;59402;48.396;-4.472;2022-11-20T04:11:14;34.65;;;4.43;;
41709;SDS011;59402;48.396;-4.472;2022-11-20T04:13:41;40.58;;;5.20;;
41709;SDS011;59402;48.396;-4.472;2022-11-20T04:16:07;32.55;;;4.97;;
41709;SDS011;59402;48.396;-4.472;2022-11-20T04:18:34;34.17;;;4.75;;
41709;SDS011;59402;48.396;-4.472;2022-11-20T04:21:01;25.55;;;4.10;;
41709;SDS011;59402;48.396;-4.472;2022-11-20T04:23:27;23.27;;;4.05;;
41709;SDS011;59402;48.396;-4.472;2022-11-20T04:25:53;18.40;;;3.17;;
41709;SDS011;59402;48.396;-4.472;2022-11-20T04:28:18;22.48;;;3.35;;
41709;SDS011;59402;48.396;-4.472;2022-11-20T04:30:43;20.98;;;3.15;;
41709;SDS011;59402;48.396;-4.472;2022-11-20T04:33:09;18.02;;;3.45;;
41709;SDS011;59402;48.396;-4.472;2022-11-20T04:35:34;15.43;;;2.65;;
41709;SDS011;59402;48.396;-4.472;2022-11-20T04:38:00;21.30;;;3.33;;
41709;SDS011;59402;48.396;-4.472;2022-11-20T04:40:27;23.27;;;3.53;;
41709;SDS011;59402;48.396;-4.472;2022-11-20T04:42:52;23.83;;;3.78;;
41709;SDS011;59402;48.396;-4.472;2022-11-20T04:45:18;24.08;;;3.70;;
41709;SDS011;59402;48.396;-4.472;2022-11-20T04:47:43;18.98;;;3.38;;
41709;SDS011;59402;48.396;-4.472;2022-11-20T04:50:09;22.17;;;3.53;;
41709;SDS011;59402;48.396;-4.472;2022-11-20T04:52:35;21.40;;;4.07;;
41709;SDS011;59402;48.396;-4.472;2022-11-20T04:55:00;22.45;;;4.18;;
41709;SDS011;59402;48.396;-4.472;2022-11-20T04:57:26;31.05;;;4.03;;
41709;SDS011;59402;48.396;-4.472;2022-11-20T04:59:51;40.45;;;5.15;;
41709;SDS011;59402;48.396;-4.472;2022-11-20T05:02:16;28.00;;;4.28;;
41709;SDS011;59402;48.396;-4.472;2022-11-20T05:04:42;24.77;;;4.18;;
41709;SDS011;59402;48.396;-4.472;2022-11-20T05:07:07;33.42;;;4.80;;
41709;SDS011;59402;48.396;-4.472;2022-11-20T05:09:33;31.15;;;5.65;;
41709;SDS011;59402;48.396;-4.472;2022-11-20T05:11:58;41.85;;;6.25;;
41709;SDS011;59402;48.396;-4.472;2022-11-20T05:14:24;34.53;;;5.35;;
41709;SDS011;59402;48.396;-4.472;2022-11-20T05:16:49;39.00;;;6.60;;
41709;SDS011;59402;48.396;-4.472;2022-11-20T05:19:15;40.63;;;6.18;;
41709;SDS011;59402;48.396;-4.472;2022-11-20T05:21:40;43.40;;;6.43;;
41709;SDS011;59402;48.396;-4.472;2022-11-20T05:24:06;43.92;;;6.65;;
41709;SDS011;59402;48.396;-4.472;2022-11-20T05:26:32;37.90;;;6.75;;
41709;SDS011;59402;48.396;-4.472;2022-11-20T05:28:57;54.50;;;8.18;;
41709;SDS011;59402;48.396;-4.472;2022-11-20T05:31:23;51.40;;;8.18;;
41709;SDS011;59402;48.396;-4.472;2022-11-20T05:33:50;44.95;;;9.10;;
41709;SDS011;59402;48.396;-4.472;2022-11-20T05:36:16;39.67;;;7.28;;
41709;SDS011;59402;48.396;-4.472;2022-11-20T05:38:42;36.38;;;6.55;;
41709;SDS011;59402;48.396;-4.472;2022-11-20T05:41:12;49.58;;;8.15;;
41709;SDS011;59402;48.396;-4.472;2022-11-20T05:43:43;42.85;;;6.47;;
41709;SDS011;59402;48.396;-4.472;2022-11-20T05:46:09;45.78;;;6.68;;
41709;SDS011;59402;48.396;-4.472;2022-11-20T05:48:36;43.17;;;6.85;;
41709;SDS011;59402;48.396;-4.472;2022-11-20T05:51:03;43.13;;;7.00;;
41709;SDS011;59402;48.396;-4.472;2022-11-20T05:53:29;39.55;;;6.68;;
41709;SDS011;59402;48.396;-4.472;2022-11-20T05:56:04;54.20;;;8.30;;
41709;SDS011;59402;48.396;-4.472;2022-11-20T05:58:32;53.97;;;6.93;;
41709;SDS011;59402;48.396;-4.472;2022-11-20T06:03:36;45.40;;;6.38;;
41709;SDS011;59402;48.396;-4.472;2022-11-20T06:06:02;53.92;;;6.80;;
41709;SDS011;59402;48.396;-4.472;2022-11-20T06:08:29;50.97;;;7.95;;
41709;SDS011;59402;48.396;-4.472;2022-11-20T06:10:55;39.78;;;6.68;;
41709;SDS011;59402;48.396;-4.472;2022-11-20T06:13:20;48.38;;;7.55;;
41709;SDS011;59402;48.396;-4.472;2022-11-20T06:15:50;48.60;;;7.53;;
41709;SDS011;59402;48.396;-4.472;2022-11-20T06:18:16;54.15;;;7.78;;
41709;SDS011;59402;48.396;-4.472;2022-11-20T06:20:42;43.85;;;7.53;;
41709;SDS011;59402;48.396;-4.472;2022-11-20T06:23:07;48.35;;;6.78;;
41709;SDS011;59402;48.396;-4.472;2022-11-20T06:25:33;44.30;;;6.97;;
41709;SDS011;59402;48.396;-4.472;2022-11-20T06:28:02;34.30;;;5.93;;
41709;SDS011;59402;48.396;-4.472;2022-11-20T06:30:28;46.08;;;7.10;;
41709;SDS011;59402;48.396;-4.472;2022-11-20T06:32:53;52.90;;;7.60;;
41709;SDS011;59402;48.396;-4.472;2022-11-20T06:35:19;40.70;;;7.15;;
41709;SDS011;59402;48.396;-4.472;2022-11-20T06:37:44;44.00;;;7.10;;
41709;SDS011;59402;48.396;-4.472;2022-11-20T06:40:10;47.20;;;6.53;;
41709;SDS011;59402;48.396;-4.472;2022-11-20T06:42:36;41.22;;;7.30;;
41709;SDS011;59402;48.396;-4.472;2022-11-20T06:45:01;41.55;;;6.70;;
41709;SDS011;59402;48.396;-4.472;2022-11-20T06:47:26;35.30;;;5.50;;
41709;SDS011;59402;48.396;-4.472;2022-11-20T06:49:52;39.38;;;6.28;;
41709;SDS011;59402;48.396;-4.472;2022-11-20T06:52:17;40.47;;;7.10;;
41709;SDS011;59402;48.396;-4.472;2022-11-20T06:54:43;34.53;;;6.63;;
41709;SDS011;59402;48.396;-4.472;2022-11-20T06:57:08;32.15;;;6.07;;
41709;SDS011;59402;48.396;-4.472;2022-11-20T06:59:34;33.97;;;5.72;;
41709;SDS011;59402;48.396;-4.472;2022-11-20T07:01:59;41.60;;;6.60;;
41709;SDS011;59402;48.396;-4.472;2022-11-20T07:04:25;33.95;;;6.07;;
41709;SDS011;59402;48.396;-4.472;2022-11-20T07:06:50;35.92;;;5.45;;
41709;SDS011;59402;48.396;-4.472;2022-11-20T07:09:15;41.75;;;6.50;;
41709;SDS011;59402;48.396;-4.472;2022-11-20T07:11:41;34.80;;;6.18;;
41709;SDS011;59402;48.396;-4.472;2022-11-20T07:14:06;32.03;;;5.82;;
41709;SDS011;59402;48.396;-4.472;2022-11-20T07:16:32;33.55;;;5.68;;
41709;SDS011;59402;48.396;-4.472;2022-11-20T07:18:57;31.00;;;5.65;;
41709;SDS011;59402;48.396;-4.472;2022-11-20T07:21:23;34.10;;;5.53;;
41709;SDS011;59402;48.396;-4.472;2022-11-20T07:23:48;34.28;;;5.75;;
41709;SDS011;59402;48.396;-4.472;2022-11-20T07:26:13;33.80;;;5.30;;
41709;SDS011;59402;48.396;-4.472;2022-11-20T07:28:39;30.27;;;6.45;;
41709;SDS011;59402;48.396;-4.472;2022-11-20T07:31:05;34.47;;;5.78;;
41709;SDS011;59402;48.396;-4.472;2022-11-20T07:33:31;30.13;;;5.55;;
41709;SDS011;59402;48.396;-4.472;2022-11-20T07:36:00;28.95;;;5.72;;
41709;SDS011;59402;48.396;-4.472;2022-11-20T07:38:26;31.42;;;5.05;;
41709;SDS011;59402;48.396;-4.472;2022-11-20T07:40:55;41.03;;;6.28;;
41709;SDS011;59402;48.396;-4.472;2022-11-20T07:43:22;42.75;;;6.55;;
41709;SDS011;59402;48.396;-4.472;2022-11-20T07:45:48;44.65;;;6.75;;
41709;SDS011;59402;48.396;-4.472;2022-11-20T07:48:13;37.08;;;5.78;;
41709;SDS011;59402;48.396;-4.472;2022-11-20T07:50:39;31.33;;;6.03;;
41709;SDS011;59402;48.396;-4.472;2022-11-20T07:53:04;40.10;;;6.47;;
41709;SDS011;59402;48.396;-4.472;2022-11-20T07:55:31;32.72;;;6.30;;
41709;SDS011;59402;48.396;-4.472;2022-11-20T07:57:56;32.67;;;7.10;;
41709;SDS011;59402;48.396;-4.472;2022-11-20T08:00:22;38.88;;;6.18;;
41709;SDS011;59402;48.396;-4.472;2022-11-20T08:02:48;36.00;;;6.68;;
41709;SDS011;59402;48.396;-4.472;2022-11-20T08:05:13;34.70;;;6.35;;
41709;SDS011;59402;48.396;-4.472;2022-11-20T08:07:40;36.00;;;7.13;;
41709;SDS011;59402;48.396;-4.472;2022-11-20T08:10:08;41.45;;;6.57;;
41709;SDS011;59402;48.396;-4.472;2022-11-20T08:15:19;38.03;;;6.35;;
41709;SDS011;59402;48.396;-4.472;2022-11-20T08:17:45;43.75;;;8.40;;
41709;SDS011;59402;48.396;-4.472;2022-11-20T08:20:10;42.45;;;7.70;;
41709;SDS011;59402;48.396;-4.472;2022-11-20T08:22:36;40.95;;;6.30;;
41709;SDS011;59402;48.396;-4.472;2022-11-20T08:25:02;39.63;;;6.88;;
41709;SDS011;59402;48.396;-4.472;2022-11-20T08:27:27;38.40;;;6.47;;
41709;SDS011;59402;48.396;-4.472;2022-11-20T08:29:53;33.08;;;5.95;;
41709;SDS011;59402;48.396;-4.472;2022-11-20T08:32:18;34.78;;;6.57;;
41709;SDS011;59402;48.396;-4.472;2022-11-20T08:34:44;34.30;;;6.10;;
41709;SDS011;59402;48.396;-4.472;2022-11-20T08:37:09;36.25;;;6.00;;
41709;SDS011;59402;48.396;-4.472;2022-11-20T08:39:34;29.92;;;6.28;;
41709;SDS011;59402;48.396;-4.472;2022-11-20T08:42:00;35.88;;;6.00;;
41709;SDS011;59402;48.396;-4.472;2022-11-20T08:44:25;30.08;;;5.47;;
41709;SDS011;59402;48.396;-4.472;2022-11-20T08:46:51;31.63;;;6.05;;
41709;SDS011;59402;48.396;-4.472;2022-11-20T08:49:16;33.58;;;6.00;;
41709;SDS011;59402;48.396;-4.472;2022-11-20T08:51:43;36.65;;;5.00;;
41709;SDS011;59402;48.396;-4.472;2022-11-20T08:54:08;30.08;;;6.03;;
41709;SDS011;59402;48.396;-4.472;2022-11-20T08:56:34;31.33;;;5.72;;
41709;SDS011;59402;48.396;-4.472;2022-11-20T08:59:00;26.73;;;4.55;;
41709;SDS011;59402;48.396;-4.472;2022-11-20T09:01:25;34.22;;;5.78;;
41709;SDS011;59402;48.396;-4.472;2022-11-20T09:03:51;35.03;;;4.93;;
41709;SDS011;59402;48.396;-4.472;2022-11-20T09:06:17;31.13;;;5.32;;
41709;SDS011;59402;48.396;-4.472;2022-11-20T09:08:43;29.55;;;5.60;;
41709;SDS011;59402;48.396;-4.472;2022-11-20T09:11:09;26.63;;;5.55;;
41709;SDS011;59402;48.396;-4.472;2022-11-20T09:13:35;31.63;;;6.20;;
41709;SDS011;59402;48.396;-4.472;2022-11-20T09:16:04;35.63;;;6.13;;
41709;SDS011;59402;48.396;-4.472;2022-11-20T09:18:32;30.63;;;5.75;;
41709;SDS011;59402;48.396;-4.472;2022-11-20T09:20:59;33.92;;;6.13;;
41709;SDS011;59402;48.396;-4.472;2022-11-20T09:23:25;29.50;;;5.55;;
41709;SDS011;59402;48.396;-4.472;2022-11-20T09:25:51;26.10;;;5.45;;
41709;SDS011;59402;48.396;-4.472;2022-11-20T09:28:17;26.98;;;5.15;;
41709;SDS011;59402;48.396;-4.472;2022-11-20T09:30:43;28.55;;;5.30;;
41709;SDS011;59402;48.396;-4.472;2022-11-20T09:33:09;34.78;;;5.72;;
41709;SDS011;59402;48.396;-4.472;2022-11-20T09:35:35;29.20;;;5.47;;
41709;SDS011;59402;48.396;-4.472;2022-11-20T09:38:04;27.77;;;5.40;;
41709;SDS011;59402;48.396;-4.472;2022-11-20T09:40:33;27.13;;;5.10;;
41709;SDS011;59402;48.396;-4.472;2022-11-20T09:43:07;27.92;;;5.53;;
41709;SDS011;59402;48.396;-4.472;2022-11-20T09:48:53;21.15;;;4.40;;
41709;SDS011;59402;48.396;-4.472;2022-11-20T09:51:27;26.15;;;5.03;;
41709;SDS011;59402;48.396;-4.472;2022-11-20T09:56:41;30.92;;;5.85;;
41709;SDS011;59402;48.396;-4.472;2022-11-20T09:59:14;37.60;;;6.88;;
41709;SDS011;59402;48.396;-4.472;2022-11-20T10:01:47;27.60;;;5.38;;
41709;SDS011;59402;48.396;-4.472;2022-11-20T10:04:13;32.13;;;5.47;;
41709;SDS011;59402;48.396;-4.472;2022-11-20T10:11:51;31.20;;;5.90;;
41709;SDS011;59402;48.396;-4.472;2022-11-20T10:14:43;30.60;;;5.45;;
41709;SDS011;59402;48.396;-4.472;2022-11-20T10:20:02;26.80;;;4.60;;
41709;SDS011;59402;48.396;-4.472;2022-11-20T10:28:39;26.90;;;5.10;;
41709;SDS011;59402;48.396;-4.472;2022-11-20T10:31:33;28.17;;;4.35;;
41709;SDS011;59402;48.396;-4.472;2022-11-20T10:34:01;22.67;;;4.75;;
41709;SDS011;59402;48.396;-4.472;2022-11-20T10:36:34;22.48;;;4.07;;
41709;SDS011;59402;48.396;-4.472;2022-11-20T10:41:53;22.83;;;4.60;;
41709;SDS011;59402;48.396;-4.472;2022-11-20T10:44:22;18.65;;;3.83;;
41709;SDS011;59402;48.396;-4.472;2022-11-20T10:47:12;18.77;;;4.75;;
41709;SDS011;59402;48.396;-4.472;2022-11-20T10:49:40;25.90;;;4.30;;
41709;SDS011;59402;48.396;-4.472;2022-11-20T10:52:10;21.13;;;4.40;;
41709;SDS011;59402;48.396;-4.472;2022-11-20T11:02:17;24.95;;;3.90;;
41709;SDS011;59402;48.396;-4.472;2022-11-20T11:04:55;19.55;;;3.30;;
41709;SDS011;59402;48.396;-4.472;2022-11-20T11:07:22;20.08;;;3.67;;
41709;SDS011;59402;48.396;-4.472;2022-11-20T11:09:50;19.45;;;3.67;;
41709;SDS011;59402;48.396;-4.472;2022-11-20T11:12:18;21.27;;;4.00;;
41709;SDS011;59402;48.396;-4.472;2022-11-20T11:14:49;26.40;;;5.13;;
41709;SDS011;59402;48.396;-4.472;2022-11-20T11:17:34;20.27;;;3.53;;
41709;SDS011;59402;48.396;-4.472;2022-11-20T11:20:14;24.70;;;3.50;;
41709;SDS011;59402;48.396;-4.472;2022-11-20T11:22:45;23.73;;;4.47;;
41709;SDS011;59402;48.396;-4.472;2022-11-20T11:25:19;16.70;;;4.18;;
41709;SDS011;59402;48.396;-4.472;2022-11-20T11:27:53;19.15;;;3.63;;
41709;SDS011;59402;48.396;-4.472;2022-11-20T11:30:21;20.50;;;3.65;;
41709;SDS011;59402;48.396;-4.472;2022-11-20T11:32:47;19.85;;;3.40;;
41709;SDS011;59402;48.396;-4.472;2022-11-20T11:35:23;22.35;;;3.88;;
41709;SDS011;59402;48.396;-4.472;2022-11-20T11:37:51;16.38;;;2.88;;
41709;SDS011;59402;48.396;-4.472;2022-11-20T11:40:19;22.27;;;4.47;;
41709;SDS011;59402;48.396;-4.472;2022-11-20T11:42:51;17.60;;;3.35;;
41709;SDS011;59402;48.396;-4.472;2022-11-20T11:45:19;15.60;;;3.78;;
41709;SDS011;59402;48.396;-4.472;2022-11-20T11:47:46;17.48;;;3.05;;
41709;SDS011;59402;48.396;-4.472;2022-11-20T11:50:18;23.17;;;3.45;;
41709;SDS011;59402;48.396;-4.472;2022-11-20T11:58:08;18.30;;;3.83;;
41709;SDS011;59402;48.396;-4.472;2022-11-20T12:00:37;20.80;;;3.33;;
41709;SDS011;59402;48.396;-4.472;2022-11-20T12:03:12;21.90;;;3.30;;
41709;SDS011;59402;48.396;-4.472;2022-11-20T12:05:49;17.13;;;3.55;;
41709;SDS011;59402;48.396;-4.472;2022-11-20T12:08:43;17.15;;;3.55;;
41709;SDS011;59402;48.396;-4.472;2022-11-20T12:11:30;17.45;;;3.35;;
41709;SDS011;59402;48.396;-4.472;2022-11-20T12:14:00;20.30;;;4.15;;
41709;SDS011;59402;48.396;-4.472;2022-11-20T12:16:34;23.92;;;3.60;;
41709;SDS011;59402;48.396;-4.472;2022-11-20T12:19:02;15.25;;;3.17;;
41709;SDS011;59402;48.396;-4.472;2022-11-20T12:21:40;18.50;;;3.35;;
41709;SDS011;59402;48.396;-4.472;2022-11-20T12:27:13;11.90;;;2.97;;
41709;SDS011;59402;48.396;-4.472;2022-11-20T12:30:01;13.38;;;2.92;;
41709;SDS011;59402;48.396;-4.472;2022-11-20T12:37:54;12.70;;;3.10;;
41709;SDS011;59402;48.396;-4.472;2022-11-20T12:40:35;16.92;;;3.50;;
41709;SDS011;59402;48.396;-4.472;2022-11-20T12:43:22;15.23;;;3.40;;
41709;SDS011;59402;48.396;-4.472;2022-11-20T12:54:36;18.15;;;4.20;;
41709;SDS011;59402;48.396;-4.472;2022-11-20T12:57:21;24.95;;;3.75;;
41709;SDS011;59402;48.396;-4.472;2022-11-20T13:07:28;21.10;;;4.55;;
41709;SDS011;59402;48.396;-4.472;2022-11-20T13:09:55;16.35;;;4.43;;
41709;SDS011;59402;48.396;-4.472;2022-11-20T13:20:14;15.60;;;3.83;;
41709;SDS011;59402;48.396;-4.472;2022-11-20T13:22:43;19.92;;;3.47;;
41709;SDS011;59402;48.396;-4.472;2022-11-20T13:30:36;22.58;;;4.35;;
41709;SDS011;59402;48.396;-4.472;2022-11-20T13:35:35;15.65;;;3.53;;
41709;SDS011;59402;48.396;-4.472;2022-11-20T13:40:39;23.95;;;4.57;;
41709;SDS011;59402;48.396;-4.472;2022-11-20T13:46:10;28.40;;;3.90;;
41709;SDS011;59402;48.396;-4.472;2022-11-20T13:48:39;23.70;;;3.55;;
41709;SDS011;59402;48.396;-4.472;2022-11-20T14:02:36;26.00;;;4.15;;
41709;SDS011;59402;48.396;-4.472;2022-11-20T14:05:01;16.65;;;3.50;;
41709;SDS011;59402;48.396;-4.472;2022-11-20T14:07:31;24.23;;;4.50;;
41709;SDS011;59402;48.396;-4.472;2022-11-20T14:10:01;30.85;;;5.60;;
41709;SDS011;59402;48.396;-4.472;2022-11-20T14:12:30;22.00;;;4.38;;
41709;SDS011;59402;48.396;-4.472;2022-11-20T14:14:57;23.60;;;4.55;;
41709;SDS011;59402;48.396;-4.472;2022-11-20T14:17:24;20.95;;;4.30;;
41709;SDS011;59402;48.396;-4.472;2022-11-20T14:19:58;26.95;;;4.72;;
41709;SDS011;59402;48.396;-4.472;2022-11-20T14:22:25;21.55;;;4.50;;
41709;SDS011;59402;48.396;-4.472;2022-11-20T14:25:02;24.17;;;4.22;;
41709;SDS011;59402;48.396;-4.472;2022-11-20T14:27:37;29.92;;;4.57;;
41709;SDS011;59402;48.396;-4.472;2022-11-20T14:30:04;23.13;;;4.63;;
41709;SDS011;59402;48.396;-4.472;2022-11-20T14:32:30;27.42;;;4.18;;
41709;SDS011;59402;48.396;-4.472;2022-11-20T14:34:57;30.75;;;5.13;;
41709;SDS011;59402;48.396;-4.472;2022-11-20T14:37:25;23.40;;;4.68;;
41709;SDS011;59402;48.396;-4.472;2022-11-20T14:39:53;25.15;;;4.70;;
41709;SDS011;59402;48.396;-4.472;2022-11-20T14:42:21;26.65;;;5.10;;
41709;SDS011;59402;48.396;-4.472;2022-11-20T14:44:48;29.55;;;5.03;;
41709;SDS011;59402;48.396;-4.472;2022-11-20T14:47:17;23.83;;;4.20;;
41709;SDS011;59402;48.396;-4.472;2022-11-20T14:49:48;29.48;;;4.57;;
41709;SDS011;59402;48.396;-4.472;2022-11-20T14:52:24;23.52;;;4.47;;
41709;SDS011;59402;48.396;-4.472;2022-11-20T14:54:51;26.08;;;4.53;;
41709;SDS011;59402;48.396;-4.472;2022-11-20T14:59:51;20.88;;;4.03;;
41709;SDS011;59402;48.396;-4.472;2022-11-20T15:02:28;27.65;;;4.78;;
41709;SDS011;59402;48.396;-4.472;2022-11-20T15:04:58;26.30;;;4.72;;
41709;SDS011;59402;48.396;-4.472;2022-11-20T15:07:27;28.48;;;4.80;;
41709;SDS011;59402;48.396;-4.472;2022-11-20T15:12:25;20.98;;;4.63;;
41709;SDS011;59402;48.396;-4.472;2022-11-20T15:14:51;31.20;;;5.10;;
41709;SDS011;59402;48.396;-4.472;2022-11-20T15:17:17;26.15;;;5.30;;
41709;SDS011;59402;48.396;-4.472;2022-11-20T15:19:42;30.88;;;6.57;;
41709;SDS011;59402;48.396;-4.472;2022-11-20T15:22:09;36.92;;;5.82;;
41709;SDS011;59402;48.396;-4.472;2022-11-20T15:24:38;31.55;;;5.80;;
41709;SDS011;59402;48.396;-4.472;2022-11-20T15:27:03;28.80;;;4.85;;
41709;SDS011;59402;48.396;-4.472;2022-11-20T15:29:29;28.00;;;6.00;;
41709;SDS011;59402;48.396;-4.472;2022-11-20T15:31:54;32.22;;;5.18;;
41709;SDS011;59402;48.396;-4.472;2022-11-20T15:34:21;32.28;;;5.68;;
41709;SDS011;59402;48.396;-4.472;2022-11-20T15:36:46;29.52;;;5.40;;
41709;SDS011;59402;48.396;-4.472;2022-11-20T15:39:12;31.30;;;5.40;;
41709;SDS011;59402;48.396;-4.472;2022-11-20T15:41:37;30.40;;;5.70;;
41709;SDS011;59402;48.396;-4.472;2022-11-20T15:44:04;33.03;;;5.93;;
41709;SDS011;59402;48.396;-4.472;2022-11-20T15:46:33;31.33;;;5.82;;
41709;SDS011;59402;48.396;-4.472;2022-11-20T15:49:03;33.65;;;5.65;;
41709;SDS011;59402;48.396;-4.472;2022-11-20T15:54:24;25.67;;;6.10;;
41709;SDS011;59402;48.396;-4.472;2022-11-20T15:56:50;28.65;;;6.13;;
41709;SDS011;59402;48.396;-4.472;2022-11-20T15:59:18;29.63;;;5.47;;
41709;SDS011;59402;48.396;-4.472;2022-11-20T16:01:44;25.08;;;5.07;;
41709;SDS011;59402;48.396;-4.472;2022-11-20T16:04:13;32.85;;;6.38;;
41709;SDS011;59402;48.396;-4.472;2022-11-20T16:06:40;28.85;;;5.72;;
41709;SDS011;59402;48.396;-4.472;2022-11-20T16:09:06;31.88;;;6.18;;
41709;SDS011;59402;48.396;-4.472;2022-11-20T16:11:33;32.47;;;5.53;;
41709;SDS011;59402;48.396;-4.472;2022-11-20T16:13:58;33.03;;;5.70;;
41709;SDS011;59402;48.396;-4.472;2022-11-20T16:16:42;28.55;;;6.22;;
41709;SDS011;59402;48.396;-4.472;2022-11-20T16:19:12;33.75;;;6.53;;
41709;SDS011;59402;48.396;-4.472;2022-11-20T16:21:37;27.58;;;5.32;;
41709;SDS011;59402;48.396;-4.472;2022-11-20T16:24:05;33.07;;;6.00;;
41709;SDS011;59402;48.396;-4.472;2022-11-20T16:26:31;37.87;;;6.87;;